createdAt,value
2022-12-29T00:01:24.354Z,18.40
2022-12-29T00:03:53.862Z,18.40
2022-12-29T00:06:25.811Z,18.40
2022-12-29T00:08:58.035Z,18.40
2022-12-29T00:11:29.721Z,18.40
2022-12-29T00:14:21.436Z,18.50
2022-12-29T00:16:53.411Z,18.50
2022-12-29T00:19:41.741Z,18.50
2022-12-29T00:22:34.477Z,18.60
2022-12-29T00:25:22.646Z,18.60
2022-12-29T00:28:09.889Z,18.60
2022-12-29T00:30:57.823Z,18.60
2022-12-29T00:33:52.793Z,18.70
2022-12-29T00:36:28.396Z,18.70
2022-12-29T00:39:24.818Z,18.80
2022-12-29T00:42:12.110Z,18.90
2022-12-29T00:44:41.320Z,19.00
2022-12-29T00:47:10.599Z,19.10
2022-12-29T00:49:42.614Z,19.10
2022-12-29T00:52:15.364Z,19.20
2022-12-29T00:54:46.815Z,19.30
2022-12-29T00:57:16.757Z,19.30
2022-12-29T00:59:47.290Z,19.40
2022-12-29T01:02:16.658Z,19.50
2022-12-29T01:04:46.177Z,19.60
2022-12-29T01:07:15.380Z,19.70
2022-12-29T01:10:02.880Z,19.80
2022-12-29T01:12:45.861Z,19.90
2022-12-29T01:15:17.700Z,20.00
2022-12-29T01:17:47.917Z,20.10
2022-12-29T01:20:17.393Z,20.10
2022-12-29T01:22:47.496Z,20.20
2022-12-29T01:25:16.747Z,20.30
2022-12-29T01:27:47.539Z,20.40
2022-12-29T01:30:16.782Z,20.50
2022-12-29T01:32:47.652Z,20.50
2022-12-29T01:35:16.934Z,20.60
2022-12-29T01:37:47.609Z,20.70
2022-12-29T01:40:16.982Z,20.80
2022-12-29T01:42:47.610Z,20.80
2022-12-29T01:45:19.834Z,20.90
2022-12-29T01:48:05.982Z,21.00
2022-12-29T01:50:44.666Z,21.10
2022-12-29T01:53:29.417Z,21.20
2022-12-29T01:56:07.174Z,21.20
2022-12-29T01:58:42.420Z,21.30
2022-12-29T02:01:11.888Z,21.30
2022-12-29T02:03:41.310Z,21.40
2022-12-29T02:06:36.955Z,21.40
2022-12-29T02:09:06.246Z,21.50
2022-12-29T02:11:37.815Z,21.50
2022-12-29T02:14:13.827Z,21.60
2022-12-29T02:16:58.311Z,21.60
2022-12-29T02:20:01.016Z,21.70
2022-12-29T02:22:47.975Z,21.80
2022-12-29T02:26:13.391Z,21.90
2022-12-29T02:29:31.068Z,22.00
2022-12-29T02:32:10.236Z,22.10
2022-12-29T02:35:00.604Z,22.20
2022-12-29T02:37:54.469Z,22.20
2022-12-29T02:40:41.209Z,22.30
2022-12-29T02:44:02.606Z,22.40
2022-12-29T02:47:14.635Z,22.50
2022-12-29T02:50:12.025Z,22.60
2022-12-29T02:53:16.145Z,22.60
2022-12-29T02:55:54.391Z,22.70
2022-12-29T02:58:25.976Z,22.80
2022-12-29T03:01:39.679Z,22.80
2022-12-29T03:04:50.564Z,22.90
2022-12-29T03:07:46.854Z,23.00
2022-12-29T03:10:48.217Z,23.10
2022-12-29T03:14:04.522Z,23.10
2022-12-29T03:16:47.210Z,23.30
2022-12-29T03:19:34.215Z,23.40
2022-12-29T03:22:33.204Z,23.40
2022-12-29T03:25:32.942Z,23.50
2022-12-29T03:28:38.976Z,23.60
2022-12-29T03:31:14.602Z,23.70
2022-12-29T03:33:46.354Z,23.80
2022-12-29T03:36:40.031Z,23.90
2022-12-29T03:39:15.891Z,23.90
2022-12-29T03:41:48.000Z,24.00
2022-12-29T03:44:17.163Z,24.20
2022-12-29T03:46:46.355Z,24.20
2022-12-29T03:49:15.427Z,24.40
2022-12-29T03:51:44.571Z,24.40
2022-12-29T03:54:16.687Z,24.50
2022-12-29T03:56:46.930Z,24.60
2022-12-29T03:59:16.023Z,24.70
2022-12-29T04:01:45.389Z,24.70
2022-12-29T04:04:14.749Z,24.80
2022-12-29T04:06:44.182Z,24.80
2022-12-29T04:09:13.620Z,24.90
2022-12-29T04:11:42.813Z,25.00
2022-12-29T04:14:11.976Z,25.00
2022-12-29T04:16:41.094Z,25.10
2022-12-29T04:19:10.874Z,25.10
2022-12-29T04:21:40.044Z,25.10
2022-12-29T04:24:09.969Z,25.30
2022-12-29T04:26:42.397Z,25.40
2022-12-29T04:29:11.609Z,25.50
2022-12-29T04:31:40.899Z,25.50
2022-12-29T04:34:10.387Z,25.60
2022-12-29T04:36:40.812Z,25.70
2022-12-29T04:39:10.117Z,25.80
2022-12-29T04:41:40.202Z,25.90
2022-12-29T04:44:09.353Z,26.00
2022-12-29T04:46:39.591Z,26.10
2022-12-29T04:49:10.484Z,26.20
2022-12-29T04:51:39.601Z,26.30
2022-12-29T04:54:08.744Z,26.40
2022-12-29T04:56:37.810Z,26.50
2022-12-29T04:59:07.208Z,26.60
2022-12-29T05:01:36.882Z,26.70
2022-12-29T05:04:06.327Z,26.80
2022-12-29T05:06:35.487Z,26.90
2022-12-29T05:09:04.660Z,27.00
2022-12-29T05:11:34.778Z,27.10
2022-12-29T05:14:03.870Z,27.20
2022-12-29T05:16:33.049Z,27.30
2022-12-29T05:19:02.838Z,27.40
2022-12-29T05:21:31.938Z,27.50
2022-12-29T05:24:01.131Z,27.70
2022-12-29T05:26:30.354Z,27.80
2022-12-29T05:28:59.496Z,27.90
2022-12-29T05:31:29.445Z,28.00
2022-12-29T05:33:58.780Z,28.10
2022-12-29T05:36:28.981Z,28.20
2022-12-29T05:38:59.696Z,28.30
2022-12-29T05:41:29.391Z,28.40
2022-12-29T05:43:58.607Z,28.40
2022-12-29T05:46:27.978Z,28.60
2022-12-29T05:48:57.229Z,28.60
2022-12-29T05:51:26.427Z,28.70
2022-12-29T05:53:55.783Z,28.80
2022-12-29T05:56:25.242Z,28.90
2022-12-29T06:01:37.987Z,29.00
2022-12-29T06:04:07.457Z,29.10
2022-12-29T06:06:36.723Z,29.20
2022-12-29T06:09:05.983Z,29.20
2022-12-29T06:11:35.179Z,29.30
2022-12-29T06:14:04.411Z,29.30
2022-12-29T06:16:33.667Z,29.40
2022-12-29T06:19:02.887Z,29.40
2022-12-29T06:21:32.106Z,29.40
2022-12-29T06:26:52.646Z,29.50
2022-12-29T06:32:19.667Z,29.50
2022-12-29T06:34:52.021Z,29.60
2022-12-29T06:37:21.241Z,29.70
2022-12-29T06:39:50.393Z,29.80
2022-12-29T06:42:20.220Z,29.80
2022-12-29T06:44:49.516Z,29.90
2022-12-29T06:47:18.734Z,30.00
2022-12-29T06:49:48.588Z,30.00
2022-12-29T06:52:17.946Z,30.00
2022-12-29T06:54:47.162Z,30.10
2022-12-29T06:57:16.310Z,30.10
2022-12-29T06:59:45.727Z,30.20
2022-12-29T07:02:20.301Z,30.20
2022-12-29T07:04:49.608Z,30.20
2022-12-29T07:07:18.791Z,30.20
2022-12-29T07:09:48.760Z,30.10
2022-12-29T07:12:17.980Z,30.10
2022-12-29T07:14:47.190Z,30.10
2022-12-29T07:17:16.374Z,30.10
2022-12-29T07:19:46.679Z,30.10
2022-12-29T07:22:15.913Z,30.20
2022-12-29T07:24:46.491Z,30.20
2022-12-29T07:27:16.474Z,30.30
2022-12-29T07:29:45.785Z,30.30
2022-12-29T07:32:15.099Z,30.40
2022-12-29T07:34:46.959Z,30.40
2022-12-29T07:37:20.351Z,30.40
2022-12-29T07:39:49.556Z,30.40
2022-12-29T07:42:19.018Z,30.50
2022-12-29T07:44:48.142Z,30.50
2022-12-29T07:47:18.116Z,30.50
2022-12-29T07:49:47.364Z,30.50
2022-12-29T07:52:16.560Z,30.50
2022-12-29T07:54:45.777Z,30.50
2022-12-29T07:57:15.290Z,30.50
2022-12-29T07:59:44.358Z,30.50
2022-12-29T08:02:14.394Z,30.50
2022-12-29T08:04:43.604Z,30.50
2022-12-29T08:07:12.683Z,30.40
2022-12-29T08:09:41.803Z,30.40
2022-12-29T08:12:13.182Z,30.30
2022-12-29T08:14:42.301Z,30.30
2022-12-29T08:17:12.060Z,30.20
2022-12-29T08:19:41.959Z,30.20
2022-12-29T08:22:11.259Z,30.20
2022-12-29T08:24:40.373Z,30.20
2022-12-29T08:27:19.678Z,30.10
2022-12-29T08:29:50.108Z,30.10
2022-12-29T08:32:19.983Z,30.00
2022-12-29T08:34:49.129Z,30.00
2022-12-29T08:37:18.192Z,30.00
2022-12-29T08:39:47.296Z,30.00
2022-12-29T08:42:16.626Z,30.00
2022-12-29T08:44:45.697Z,30.00
2022-12-29T08:47:15.027Z,30.00
2022-12-29T08:49:44.180Z,30.00
2022-12-29T08:52:13.279Z,29.90
2022-12-29T08:54:42.340Z,29.90
2022-12-29T08:57:11.740Z,29.90
2022-12-29T08:59:40.880Z,29.90
2022-12-29T09:02:17.471Z,29.80
2022-12-29T09:04:49.547Z,29.90
2022-12-29T09:07:18.719Z,29.80
2022-12-29T09:09:48.017Z,29.80
2022-12-29T09:12:18.403Z,29.80
2022-12-29T09:14:49.734Z,29.80
2022-12-29T09:17:36.827Z,29.80
2022-12-29T09:20:07.345Z,29.70
2022-12-29T09:22:36.714Z,29.70
2022-12-29T09:25:06.610Z,29.70
2022-12-29T09:27:35.766Z,29.60
2022-12-29T09:30:08.573Z,29.60
2022-12-29T09:32:42.102Z,29.60
2022-12-29T09:35:15.288Z,29.50
2022-12-29T09:37:45.627Z,29.50
2022-12-29T09:40:33.686Z,29.40
2022-12-29T09:43:28.473Z,29.30
2022-12-29T09:46:15.554Z,29.30
2022-12-29T09:48:52.488Z,29.20
2022-12-29T09:51:27.820Z,29.20
2022-12-29T09:54:18.817Z,29.10
2022-12-29T09:56:50.176Z,29.00
2022-12-29T09:59:34.771Z,28.90
2022-12-29T10:02:40.822Z,28.90
2022-12-29T10:05:42.971Z,28.80
2022-12-29T10:08:31.472Z,28.60
2022-12-29T10:11:23.672Z,28.50
2022-12-29T10:14:16.341Z,28.40
2022-12-29T10:16:57.605Z,28.30
2022-12-29T10:20:05.907Z,28.20
2022-12-29T10:22:59.331Z,28.00
2022-12-29T10:25:34.799Z,27.90
2022-12-29T10:28:17.154Z,27.70
2022-12-29T10:30:50.026Z,27.60
2022-12-29T10:33:43.544Z,27.50
2022-12-29T10:36:40.660Z,27.30
2022-12-29T10:39:37.071Z,27.20
2022-12-29T10:42:40.083Z,27.10
2022-12-29T10:45:17.781Z,26.90
2022-12-29T10:48:27.137Z,26.80
2022-12-29T10:51:03.847Z,26.70
2022-12-29T10:53:56.746Z,26.60
2022-12-29T10:56:39.701Z,26.60
2022-12-29T10:59:37.835Z,26.50
2022-12-29T11:02:09.760Z,26.40
2022-12-29T11:05:06.130Z,26.30
2022-12-29T11:07:35.710Z,26.30
2022-12-29T11:10:38.526Z,26.20
2022-12-29T11:13:20.860Z,26.10
2022-12-29T11:15:53.423Z,26.00
2022-12-29T11:18:27.140Z,26.00
2022-12-29T11:21:02.140Z,25.90
2022-12-29T11:23:40.704Z,25.90
2022-12-29T11:26:34.100Z,25.80
2022-12-29T11:29:24.940Z,25.80
2022-12-29T11:32:12.255Z,25.80
2022-12-29T11:34:41.531Z,25.70
2022-12-29T11:37:23.333Z,25.70
2022-12-29T11:40:06.517Z,25.70
2022-12-29T11:43:01.100Z,25.70
2022-12-29T11:45:48.838Z,25.60
2022-12-29T11:48:23.568Z,25.60
2022-12-29T11:50:57.816Z,25.60
2022-12-29T11:53:40.693Z,25.60
2022-12-29T11:56:18.650Z,25.60
2022-12-29T11:58:51.348Z,25.60
2022-12-29T12:01:41.168Z,25.50
2022-12-29T12:04:26.969Z,25.50
2022-12-29T12:07:19.478Z,25.50
2022-12-29T12:10:08.035Z,25.50
2022-12-29T12:13:08.235Z,25.50
2022-12-29T12:15:52.771Z,25.50
2022-12-29T12:18:46.493Z,25.50
2022-12-29T12:21:41.771Z,25.50
2022-12-29T12:24:54.197Z,25.40
2022-12-29T12:27:38.131Z,25.40
2022-12-29T12:30:21.281Z,25.30
2022-12-29T12:33:23.351Z,25.40
2022-12-29T12:36:27.583Z,25.30
2022-12-29T12:39:29.143Z,25.30
2022-12-29T12:42:26.566Z,25.30
2022-12-29T12:45:25.823Z,25.30
2022-12-29T12:48:34.095Z,25.20
2022-12-29T12:51:48.273Z,25.20
2022-12-29T12:55:11.029Z,25.20
2022-12-29T12:57:51.763Z,25.10
2022-12-29T13:00:25.260Z,25.10
2022-12-29T13:03:48.098Z,25.10
2022-12-29T13:06:38.275Z,25.10
2022-12-29T13:09:32.173Z,25.10
2022-12-29T13:13:02.693Z,25.10
2022-12-29T13:16:27.206Z,25.00
2022-12-29T13:19:20.097Z,25.00
2022-12-29T13:22:06.637Z,25.00
2022-12-29T13:25:09.392Z,25.00
2022-12-29T13:27:49.081Z,25.00
2022-12-29T13:30:25.501Z,24.90
2022-12-29T13:33:26.647Z,24.90
2022-12-29T13:36:26.187Z,24.90
2022-12-29T13:39:24.663Z,24.80
2022-12-29T13:42:00.115Z,24.80
2022-12-29T13:45:09.149Z,24.80
2022-12-29T13:47:58.374Z,24.80
2022-12-29T13:50:34.550Z,24.80
2022-12-29T13:53:44.973Z,24.80
2022-12-29T13:56:34.077Z,24.70
2022-12-29T13:59:19.152Z,24.70
2022-12-29T14:02:35.116Z,24.70
2022-12-29T14:05:30.242Z,24.70
2022-12-29T14:08:07.781Z,24.70
2022-12-29T14:10:52.623Z,24.70
2022-12-29T14:13:29.127Z,24.60
2022-12-29T14:16:04.836Z,24.60
2022-12-29T14:18:45.855Z,24.60
2022-12-29T14:21:35.302Z,24.60
2022-12-29T14:24:43.742Z,24.60
2022-12-29T14:27:12.875Z,24.60
2022-12-29T14:29:44.319Z,24.50
2022-12-29T14:32:28.901Z,24.50
2022-12-29T14:35:05.911Z,24.50
2022-12-29T14:37:37.838Z,24.50
2022-12-29T14:40:11.373Z,24.40
2022-12-29T14:42:43.761Z,24.40
2022-12-29T14:45:19.005Z,24.40
2022-12-29T14:47:53.339Z,24.40
2022-12-29T14:50:41.699Z,24.40
2022-12-29T14:53:48.820Z,24.30
2022-12-29T14:56:22.805Z,24.30
2022-12-29T14:59:03.025Z,24.30
2022-12-29T15:01:57.760Z,24.20
2022-12-29T15:04:35.677Z,24.20
2022-12-29T15:07:11.283Z,24.10
2022-12-29T15:09:54.752Z,24.10
2022-12-29T15:12:37.765Z,24.00
2022-12-29T15:15:32.762Z,24.00
2022-12-29T15:18:27.439Z,24.00
2022-12-29T15:21:08.561Z,23.90
2022-12-29T15:23:39.634Z,23.90
2022-12-29T15:26:10.802Z,23.90
2022-12-29T15:28:49.362Z,23.80
2022-12-29T15:31:30.588Z,23.80
2022-12-29T15:34:14.955Z,23.80
2022-12-29T15:36:44.515Z,23.70
2022-12-29T15:39:33.268Z,23.70
2022-12-29T15:42:38.631Z,23.60
2022-12-29T15:45:14.595Z,23.60
2022-12-29T15:47:50.721Z,23.50
2022-12-29T15:50:40.763Z,23.50
2022-12-29T15:53:35.564Z,23.40
2022-12-29T15:56:12.264Z,23.40
2022-12-29T15:58:52.308Z,23.30
2022-12-29T16:01:34.796Z,23.30
2022-12-29T16:07:06.276Z,23.20
2022-12-29T16:09:47.585Z,23.10
2022-12-29T16:12:27.535Z,23.10
2022-12-29T16:17:53.654Z,23.00
2022-12-29T16:20:43.481Z,22.90
2022-12-29T16:23:32.557Z,22.90
2022-12-29T16:26:02.620Z,22.80
2022-12-29T16:28:45.623Z,22.80
2022-12-29T16:31:25.391Z,22.70
2022-12-29T16:33:57.964Z,22.60
2022-12-29T16:36:28.366Z,22.60
2022-12-29T16:39:33.696Z,22.50
2022-12-29T16:42:23.405Z,22.50
2022-12-29T16:45:20.922Z,22.40
2022-12-29T16:48:09.847Z,22.40
2022-12-29T16:50:42.149Z,22.30
2022-12-29T16:53:31.862Z,22.30
2022-12-29T16:56:16.810Z,22.20
2022-12-29T16:58:52.886Z,22.20
2022-12-29T17:01:22.800Z,22.10
2022-12-29T17:04:15.046Z,22.10
2022-12-29T17:06:44.312Z,22.00
2022-12-29T17:09:39.294Z,21.90
2022-12-29T17:12:11.444Z,21.90
2022-12-29T17:14:54.752Z,21.80
2022-12-29T17:17:46.213Z,21.80
2022-12-29T17:20:41.725Z,21.70
2022-12-29T17:23:25.934Z,21.60
2022-12-29T17:25:56.939Z,21.60
2022-12-29T17:28:31.840Z,21.50
2022-12-29T17:31:06.745Z,21.50
2022-12-29T17:33:45.418Z,21.50
2022-12-29T17:36:14.904Z,21.50
2022-12-29T17:38:44.110Z,21.50
2022-12-29T17:41:17.568Z,21.50
2022-12-29T17:43:46.690Z,21.50
2022-12-29T17:46:15.826Z,21.50
2022-12-29T17:51:32.080Z,21.50
2022-12-29T17:54:01.184Z,21.40
2022-12-29T17:56:31.515Z,21.40
2022-12-29T17:59:00.689Z,21.40
2022-12-29T18:01:35.574Z,21.40
2022-12-29T18:04:06.714Z,21.40
2022-12-29T18:06:35.903Z,21.40
2022-12-29T18:09:05.750Z,21.40
2022-12-29T18:11:34.867Z,21.40
2022-12-29T18:14:04.168Z,21.30
2022-12-29T18:16:33.346Z,21.30
2022-12-29T18:19:02.551Z,21.30
2022-12-29T18:21:32.631Z,21.30
2022-12-29T18:24:01.697Z,21.30
2022-12-29T18:26:36.700Z,21.20
2022-12-29T18:29:05.779Z,21.20
2022-12-29T18:31:37.592Z,21.20
2022-12-29T18:34:16.917Z,21.20
2022-12-29T18:36:46.091Z,21.20
2022-12-29T18:39:15.168Z,21.20
2022-12-29T18:41:44.310Z,21.10
2022-12-29T18:44:16.919Z,21.00
2022-12-29T18:46:46.089Z,21.00
2022-12-29T18:49:15.199Z,20.90
2022-12-29T18:51:44.426Z,20.90
2022-12-29T18:54:34.473Z,20.90
2022-12-29T18:57:03.609Z,20.90
2022-12-29T18:59:32.747Z,20.80
2022-12-29T19:02:02.015Z,20.80
2022-12-29T19:04:31.105Z,20.80
2022-12-29T19:07:00.329Z,20.70
2022-12-29T19:09:29.424Z,20.70
2022-12-29T19:11:58.599Z,20.70
2022-12-29T19:14:27.697Z,20.70
2022-12-29T19:16:56.935Z,20.70
2022-12-29T19:19:28.470Z,20.60
2022-12-29T19:21:59.078Z,20.60
2022-12-29T19:24:28.245Z,20.60
2022-12-29T19:26:57.382Z,20.60
2022-12-29T19:29:26.576Z,20.60
2022-12-29T19:31:55.755Z,20.60
2022-12-29T19:34:24.849Z,20.60
2022-12-29T19:36:54.291Z,20.60
2022-12-29T19:39:23.376Z,20.50
2022-12-29T19:41:53.003Z,20.50
2022-12-29T19:44:22.417Z,20.50
2022-12-29T19:46:51.604Z,20.40
2022-12-29T19:49:21.033Z,20.40
2022-12-29T19:51:50.204Z,20.40
2022-12-29T19:54:19.400Z,20.40
2022-12-29T19:56:48.675Z,20.30
2022-12-29T19:59:17.837Z,20.30
2022-12-29T20:01:47.287Z,20.30
2022-12-29T20:04:16.646Z,20.20
2022-12-29T20:06:45.810Z,20.20
2022-12-29T20:09:14.997Z,20.10
2022-12-29T20:11:44.125Z,20.10
2022-12-29T20:14:13.393Z,20.00
2022-12-29T20:17:08.859Z,19.90
2022-12-29T20:19:31.871Z,19.90
2022-12-29T20:22:01.811Z,19.80
2022-12-29T20:24:32.889Z,19.70
2022-12-29T20:27:03.924Z,19.70
2022-12-29T20:29:40.299Z,19.70
2022-12-29T20:32:22.273Z,19.60
2022-12-29T20:34:51.477Z,19.60
2022-12-29T20:37:23.284Z,19.60
2022-12-29T20:39:52.508Z,19.60
2022-12-29T20:42:22.194Z,19.50
2022-12-29T20:44:51.793Z,19.50
2022-12-29T20:47:20.930Z,19.50
2022-12-29T20:49:50.007Z,19.50
2022-12-29T20:52:20.209Z,19.40
2022-12-29T20:54:49.408Z,19.40
2022-12-29T20:57:18.524Z,19.40
2022-12-29T20:59:47.651Z,19.40
2022-12-29T21:02:24.588Z,19.40
2022-12-29T21:07:42.937Z,19.30
2022-12-29T21:10:12.458Z,19.30
2022-12-29T21:12:41.637Z,19.20
2022-12-29T21:15:11.690Z,19.20
2022-12-29T21:17:40.746Z,19.20
2022-12-29T21:20:11.394Z,19.10
2022-12-29T21:22:40.504Z,19.10
2022-12-29T21:25:10.114Z,19.00
2022-12-29T21:27:39.331Z,19.00
2022-12-29T21:30:09.451Z,19.00
2022-12-29T21:32:38.540Z,19.00
2022-12-29T21:35:08.942Z,18.90
2022-12-29T21:37:38.603Z,18.90
2022-12-29T21:40:08.453Z,19.00
2022-12-29T21:42:37.878Z,19.00
2022-12-29T21:45:26.351Z,19.00
2022-12-29T21:48:19.407Z,19.00
2022-12-29T21:51:09.579Z,19.00
2022-12-29T21:53:43.420Z,18.90
2022-12-29T21:56:22.448Z,19.00
2022-12-29T21:59:11.286Z,18.90
2022-12-29T22:01:58.865Z,18.90
2022-12-29T22:04:46.495Z,18.90
2022-12-29T22:07:33.732Z,18.90
2022-12-29T22:10:20.977Z,18.90
2022-12-29T22:13:02.241Z,18.90
2022-12-29T22:15:41.066Z,18.90
2022-12-29T22:18:10.356Z,18.90
2022-12-29T22:20:39.578Z,18.80
2022-12-29T22:23:08.750Z,18.90
2022-12-29T22:25:41.692Z,18.80
2022-12-29T22:28:10.802Z,18.80
2022-12-29T22:30:40.261Z,18.80
2022-12-29T22:33:09.577Z,18.80
2022-12-29T22:35:39.205Z,18.80
2022-12-29T22:38:08.426Z,18.70
2022-12-29T22:40:37.546Z,18.70
2022-12-29T22:43:12.916Z,18.70
2022-12-29T22:45:43.047Z,18.70
2022-12-29T22:48:12.184Z,18.80
2022-12-29T22:50:41.626Z,18.80
2022-12-29T22:53:10.780Z,18.80
2022-12-29T22:55:39.847Z,18.80
2022-12-29T22:58:08.948Z,18.80
2022-12-29T23:00:38.083Z,18.70
2022-12-29T23:03:07.445Z,18.70
2022-12-29T23:05:36.685Z,18.70
2022-12-29T23:08:06.046Z,18.70
2022-12-29T23:10:35.178Z,18.70
2022-12-29T23:13:06.865Z,18.60
2022-12-29T23:15:36.091Z,18.60
2022-12-29T23:18:05.351Z,18.60
2022-12-29T23:20:34.463Z,18.60
2022-12-29T23:23:03.590Z,18.60
2022-12-29T23:25:32.820Z,18.60
2022-12-29T23:28:01.944Z,18.50
2022-12-29T23:30:31.104Z,18.50
2022-12-29T23:33:00.302Z,18.50
2022-12-29T23:35:29.354Z,18.40
2022-12-29T23:37:58.663Z,18.40
2022-12-29T23:40:27.735Z,18.40
2022-12-29T23:42:58.047Z,18.30
2022-12-29T23:45:27.242Z,18.30
2022-12-29T23:47:56.482Z,18.30
2022-12-29T23:50:25.634Z,18.40
2022-12-29T23:52:54.854Z,18.40
2022-12-29T23:55:24.118Z,18.40
2022-12-29T23:57:53.306Z,18.30
